Time;durP1;ratioP1;P1;durP2;ratioP2;P2;SDS_P1;SDS_P2;PMS_P1;PMS_P2;Temp;Humidity;BMP_temperature;BMP_pressure;BME280_temperature;BME280_humidity;BME280_pressure;Samples;Min_cycle;Max_cycle;Signal;HPM_P1;HPM_P2
2023/04/17 00:02:14;;;;;;;;;22.80;21.20;;;;;12.79;53.48;98864.13;5981894;29;96379;-59
2023/04/17 00:05:21;;;;;;;;;21.60;20.60;;;;;12.70;53.57;98862.84;5981634;29;96346;-59
2023/04/17 00:08:25;;;;;;;;;22.00;20.60;;;;;12.66;54.29;98860.84;5982683;29;96307;-60
2023/04/17 00:11:30;;;;;;;;;23.00;21.00;;;;;12.62;54.53;98860.47;5980213;29;96624;-59
2023/04/17 00:14:33;;;;;;;;;26.40;24.00;;;;;12.60;54.27;98857.22;5979713;29;96270;-59
2023/04/17 00:17:36;;;;;;;;;26.00;23.00;;;;;12.54;54.85;98863.56;5980097;29;96649;-59
2023/04/17 00:20:40;;;;;;;;;21.00;20.00;;;;;12.52;54.58;98860.25;5980874;29;96294;-60
2023/04/17 00:23:44;;;;;;;;;24.40;22.80;;;;;12.50;54.66;98854.25;5980992;29;96769;-59
2023/04/17 00:26:49;;;;;;;;;23.60;22.00;;;;;12.53;54.56;98851.91;5980724;29;96472;-59
2023/04/17 00:29:52;;;;;;;;;24.75;22.00;;;;;12.48;54.17;98843.69;5981063;29;96399;-59
2023/04/17 00:32:56;;;;;;;;;27.80;24.60;;;;;12.59;54.36;98852.84;5982244;29;96356;-59
2023/04/17 00:35:59;;;;;;;;;22.00;20.00;;;;;12.61;54.10;98861.53;5981568;29;96264;-59
2023/04/17 00:39:02;;;;;;;;;25.00;23.50;;;;;12.64;53.95;98852.13;5962979;29;96694;-59
2023/04/17 00:42:08;;;;;;;;;23.25;21.25;;;;;12.69;54.25;98854.97;5941822;29;96330;-59
2023/04/17 00:45:11;;;;;;;;;27.00;23.40;;;;;12.70;54.33;98852.03;5957955;29;96361;-59
2023/04/17 00:48:16;;;;;;;;;28.20;26.20;;;;;12.74;54.43;98861.31;5962545;29;96490;-59
2023/04/17 00:51:19;;;;;;;;;22.60;22.00;;;;;12.77;54.61;98858.13;5979757;29;96302;-59
2023/04/17 00:54:24;;;;;;;;;28.40;26.00;;;;;12.78;55.10;98861.66;5982173;29;96927;-59
2023/04/17 00:57:29;;;;;;;;;29.00;27.40;;;;;12.78;54.63;98859.78;5964842;29;96404;-59
2023/04/17 01:00:34;;;;;;;;;27.40;24.40;;;;;12.67;53.94;98849.78;5979900;29;96724;-59
2023/04/17 01:03:37;;;;;;;;;27.25;24.00;;;;;12.62;54.29;98857.78;5979460;29;95941;-60
2023/04/17 01:06:41;;;;;;;;;28.75;26.00;;;;;12.53;54.59;98854.59;5979516;29;96284;-59
2023/04/17 01:09:44;;;;;;;;;26.25;25.25;;;;;12.46;54.61;98859.28;5963604;29;96294;-59
2023/04/17 01:13:00;;;;;;;;;31.00;28.00;;;;;12.46;54.79;98869.31;5979285;29;96395;-60
2023/04/17 01:16:05;;;;;;;;;24.25;22.00;;;;;12.46;54.49;98858.50;5964654;29;96432;-59
2023/04/17 01:19:08;;;;;;;;;24.00;23.00;;;;;12.45;54.93;98859.56;5980882;29;96303;-59
2023/04/17 01:22:13;;;;;;;;;27.00;26.50;;;;;12.41;54.93;98858.38;5979925;29;96418;-59
2023/04/17 01:25:17;;;;;;;;;30.80;26.80;;;;;12.46;55.56;98859.28;5978506;29;96525;-59
2023/04/17 01:28:21;;;;;;;;;28.00;25.40;;;;;12.51;55.36;98854.00;5946021;29;97160;-59
2023/04/17 01:31:26;;;;;;;;;31.40;28.00;;;;;12.54;55.80;98852.72;5950823;29;96410;-59
2023/04/17 01:34:30;;;;;;;;;27.00;23.75;;;;;12.53;56.58;98851.06;5964573;29;96322;-59
2023/04/17 01:37:33;;;;;;;;;26.00;23.60;;;;;12.52;55.87;98852.13;5980581;29;96952;-59
2023/04/17 01:40:38;;;;;;;;;27.80;25.00;;;;;12.49;56.12;98844.50;5964944;29;96381;-60
2023/04/17 01:43:43;;;;;;;;;24.20;23.60;;;;;12.50;55.72;98835.34;5964953;29;96467;-59
2023/04/17 01:46:46;;;;;;;;;24.50;22.50;;;;;12.49;55.70;98849.91;5955553;29;96533;-59
2023/04/17 01:49:50;;;;;;;;;29.00;26.75;;;;;12.49;55.47;98850.72;5940872;29;96326;-60
2023/04/17 01:52:54;;;;;;;;;26.00;24.00;;;;;12.51;55.35;98847.81;5964583;29;96949;-59
2023/04/17 01:55:59;;;;;;;;;27.50;25.00;;;;;12.49;55.53;98836.38;5973681;29;98316;-60
2023/04/17 01:59:03;;;;;;;;;29.40;27.40;;;;;12.48;55.23;98842.84;5967641;29;96261;-59
2023/04/17 02:02:06;;;;;;;;;25.00;21.40;;;;;12.45;55.11;98849.56;5947330;29;97702;-59
2023/04/17 02:05:10;;;;;;;;;29.00;26.00;;;;;12.48;55.47;98850.97;5977573;29;96275;-59
2023/04/17 02:08:13;;;;;;;;;25.00;23.00;;;;;12.53;55.92;98851.06;5979596;29;96778;-59
2023/04/17 02:11:18;;;;;;;;;27.00;24.00;;;;;12.60;56.92;98865.31;5978318;29;97557;-59
2023/04/17 02:14:25;;;;;;;;;27.00;27.00;;;;;12.70;57.29;98867.44;5964682;29;96446;-59
2023/04/17 02:17:28;;;;;;;;;28.00;26.25;;;;;12.84;57.93;98868.84;5956729;29;98081;-59
2023/04/17 02:20:32;;;;;;;;;26.00;23.75;;;;;12.84;58.86;98845.31;5982684;29;96283;-59
2023/04/17 02:23:35;;;;;;;;;26.00;22.00;;;;;13.20;58.55;98870.44;5973764;29;96301;-59
2023/04/17 02:26:40;;;;;;;;;26.00;25.00;;;;;13.37;58.74;98863.22;5933600;29;97248;-59
2023/04/17 02:29:44;;;;;;;;;26.60;23.20;;;;;13.45;58.67;98863.66;5980665;29;96381;-59
2023/04/17 02:32:47;;;;;;;;;27.60;23.60;;;;;13.59;58.84;98860.66;5959997;29;96455;-59
2023/04/17 02:35:51;;;;;;;;;24.67;22.67;;;;;13.71;58.71;98858.75;5979541;29;96306;-59
2023/04/17 02:38:59;;;;;;;;;24.50;22.00;;;;;13.79;58.76;98867.28;5942979;29;96403;-59
2023/04/17 02:42:04;;;;;;;;;25.00;23.00;;;;;13.89;58.39;98867.47;5943011;29;96239;-59
2023/04/17 02:45:09;;;;;;;;;24.40;21.40;;;;;13.99;58.41;98866.00;5960259;29;96663;-60
2023/04/17 02:48:12;;;;;;;;;22.40;21.00;;;;;14.04;58.04;98866.94;5945981;29;96394;-59
2023/04/17 02:51:15;;;;;;;;;23.50;21.50;;;;;14.07;58.22;98871.88;5960296;29;96322;-60
2023/04/17 02:54:19;;;;;;;;;22.00;21.25;;;;;14.10;58.20;98865.97;5960478;29;96376;-59
2023/04/17 02:57:24;;;;;;;;;23.60;21.20;;;;;14.17;57.88;98863.91;5943059;29;96309;-59
2023/04/17 03:00:28;;;;;;;;;27.00;24.00;;;;;14.26;57.63;98867.06;5961356;29;96997;-59
2023/04/17 03:03:33;;;;;;;;;26.40;23.00;;;;;14.31;57.55;98867.97;5965600;29;96875;-59
2023/04/17 03:06:40;;;;;;;;;25.50;23.50;;;;;14.36;57.44;98871.81;5967408;29;96279;-60
2023/04/17 03:09:45;;;;;;;;;22.50;20.75;;;;;14.33;57.64;98876.66;5955848;29;96704;-61
2023/04/17 03:12:50;;;;;;;;;21.60;20.60;;;;;14.40;57.44;98883.84;5962712;29;96765;-61
2023/04/17 03:15:54;;;;;;;;;24.20;21.20;;;;;14.40;57.08;98884.66;5960026;29;96506;-59
2023/04/17 03:18:57;;;;;;;;;23.40;21.00;;;;;14.45;57.04;98881.22;5958700;29;97020;-61
2023/04/17 03:22:02;;;;;;;;;23.00;20.60;;;;;14.50;57.11;98881.31;5972631;29;96467;-60
2023/04/17 03:25:06;;;;;;;;;22.00;22.00;;;;;14.51;56.86;98889.19;5953944;29;96761;-60
2023/04/17 03:28:20;;;;;;;;;20.75;17.75;;;;;14.53;57.13;98888.94;5954349;29;96648;-61
2023/04/17 03:31:26;;;;;;;;;23.20;22.00;;;;;14.55;56.88;98889.53;5966964;29;96583;-61
2023/04/17 03:34:31;;;;;;;;;26.25;24.75;;;;;14.59;56.84;98888.78;5976003;29;96344;-60
2023/04/17 03:37:35;;;;;;;;;24.20;22.20;;;;;14.59;56.89;98890.66;5959737;29;96157;-60
2023/04/17 03:40:38;;;;;;;;;22.60;21.00;;;;;14.60;56.98;98890.44;5944351;29;96532;-60
2023/04/17 03:43:43;;;;;;;;;24.80;22.80;;;;;14.61;56.94;98885.81;5971851;29;96494;-60
2023/04/17 03:46:46;;;;;;;;;25.60;25.00;;;;;14.58;57.18;98878.97;5968320;29;96939;-60
2023/04/17 03:49:50;;;;;;;;;27.75;26.00;;;;;14.69;57.30;98897.06;5947999;29;96344;-60
2023/04/17 03:52:53;;;;;;;;;29.20;23.00;;;;;14.72;56.96;98902.00;5964581;29;96391;-60
2023/04/17 03:55:59;;;;;;;;;22.00;20.50;;;;;14.70;57.30;98901.44;5964596;29;97210;-60
2023/04/17 03:59:08;;;;;;;;;25.20;23.00;;;;;14.76;56.88;98904.22;5955665;29;96822;-60
2023/04/17 04:02:16;;;;;;;;;25.80;24.00;;;;;14.74;57.05;98905.31;5951132;29;97681;-60
2023/04/17 04:05:20;;;;;;;;;25.40;24.20;;;;;14.70;57.21;98911.47;5952596;29;96873;-61
2023/04/17 04:08:24;;;;;;;;;28.40;27.00;;;;;14.51;57.21;98885.66;5953871;29;96499;-60
2023/04/17 04:11:29;;;;;;;;;25.40;24.00;;;;;14.52;57.90;98898.13;5951879;29;96936;-60
2023/04/17 04:14:34;;;;;;;;;30.40;27.00;;;;;14.61;58.29;98905.63;5948483;29;96775;-60
2023/04/17 04:17:38;;;;;;;;;29.60;25.60;;;;;14.65;58.35;98905.97;5959303;29;96577;-60
2023/04/17 04:20:43;;;;;;;;;31.00;28.00;;;;;14.66;58.24;98908.41;5958917;29;96307;-61
2023/04/17 04:23:50;;;;;;;;;27.00;25.00;;;;;14.67;58.39;98910.06;5944686;29;98498;-60
2023/04/17 04:27:03;;;;;;;;;25.00;22.20;;;;;14.63;58.32;98908.09;5942341;29;98686;-60
2023/04/17 04:30:12;;;;;;;;;28.80;24.00;;;;;14.72;58.10;98914.75;5953618;29;96516;-61
2023/04/17 04:33:19;;;;;;;;;27.50;24.50;;;;;14.78;57.69;98916.47;5957992;29;97279;-60
2023/04/17 04:36:24;;;;;;;;;27.60;24.00;;;;;14.82;57.36;98919.50;5952712;29;96396;-60
2023/04/17 04:39:39;;;;;;;;;28.00;27.00;;;;;14.83;57.44;98918.44;5960259;29;96297;-59
2023/04/17 04:42:48;;;;;;;;;29.00;26.00;;;;;14.86;57.14;98923.34;5948287;29;96559;-59
2023/04/17 04:46:00;;;;;;;;;28.00;25.00;;;;;14.79;56.72;98899.13;5978656;29;96654;-60
2023/04/17 04:49:07;;;;;;;;;27.00;24.40;;;;;14.92;56.60;98920.47;5963716;29;97873;-60
2023/04/17 04:52:11;;;;;;;;;26.00;23.50;;;;;14.98;56.74;98918.66;5971072;29;96286;-60
2023/04/17 04:55:15;;;;;;;;;25.80;24.00;;;;;15.04;56.56;98917.69;5947748;29;97628;-59
2023/04/17 04:58:24;;;;;;;;;26.50;24.50;;;;;15.08;56.55;98925.06;5959893;29;96291;-61
2023/04/17 05:01:32;;;;;;;;;28.40;25.80;;;;;15.11;56.35;98929.16;5974407;29;96444;-60
2023/04/17 05:04:36;;;;;;;;;23.80;21.80;;;;;15.14;56.45;98932.22;5974386;29;96374;-60
2023/04/17 05:07:41;;;;;;;;;27.00;25.00;;;;;15.21;56.68;98931.22;5959755;29;96804;-60
2023/04/17 05:10:47;;;;;;;;;28.20;25.00;;;;;15.27;56.42;98922.06;5951855;29;97522;-61
2023/04/17 05:13:50;;;;;;;;;24.40;22.40;;;;;15.34;56.25;98928.16;5944544;29;96664;-60
2023/04/17 05:17:01;;;;;;;;;25.00;24.40;;;;;15.42;56.17;98924.97;5952390;29;96625;-59
2023/04/17 05:20:08;;;;;;;;;27.60;26.20;;;;;15.47;55.97;98922.34;5948366;29;96874;-59
2023/04/17 05:23:21;;;;;;;;;24.00;21.50;;;;;15.55;55.98;98919.19;5956597;29;96528;-59
2023/04/17 05:26:26;;;;;;;;;26.20;24.00;;;;;15.63;55.68;98926.94;5949772;29;98656;-59
2023/04/17 05:29:31;;;;;;;;;24.80;22.20;;;;;15.70;55.89;98930.25;5966743;29;96506;-59
2023/04/17 05:32:36;;;;;;;;;22.25;20.25;;;;;15.80;55.75;98933.09;5954520;29;96330;-59
2023/04/17 05:35:50;;;;;;;;;24.00;22.60;;;;;15.73;55.37;98907.19;5968971;29;96448;-59
2023/04/17 05:38:57;;;;;;;;;23.33;20.33;;;;;15.89;55.29;98934.28;5954153;29;96406;-59
2023/04/17 05:42:01;;;;;;;;;24.40;21.00;;;;;15.94;54.81;98933.50;5960725;29;96932;-59
2023/04/17 05:45:05;;;;;;;;;22.20;22.20;;;;;15.96;54.87;98936.81;5957747;29;96962;-59
2023/04/17 05:48:10;;;;;;;;;18.00;17.00;;;;;15.95;55.05;98940.59;5951973;29;96640;-59
2023/04/17 05:51:14;;;;;;;;;24.40;22.00;;;;;15.95;55.02;98935.16;5943483;29;97101;-59
2023/04/17 05:54:17;;;;;;;;;24.50;20.50;;;;;15.94;55.08;98956.09;5958282;29;96428;-59
2023/04/17 05:57:22;;;;;;;;;23.40;22.00;;;;;15.96;55.16;98947.69;5956375;29;97313;-59
2023/04/17 06:00:25;;;;;;;;;22.00;20.60;;;;;15.99;55.02;98945.28;5981488;29;96291;-60
2023/04/17 06:03:35;;;;;;;;;25.40;22.40;;;;;16.03;54.97;98957.28;5981329;29;96345;-59
2023/04/17 06:06:48;;;;;;;;;23.40;22.40;;;;;16.02;54.91;98952.94;5947383;29;96880;-60
2023/04/17 06:09:51;;;;;;;;;22.00;22.00;;;;;16.01;55.09;98954.00;5964018;29;96827;-59
2023/04/17 06:12:55;;;;;;;;;21.50;20.50;;;;;16.02;55.10;98949.41;5969576;29;97699;-59
2023/04/17 06:15:58;;;;;;;;;22.00;20.00;;;;;16.13;54.68;98950.31;5970416;29;96602;-60
2023/04/17 06:19:02;;;;;;;;;20.60;18.00;;;;;16.21;54.96;98949.88;5971484;29;96312;-59
2023/04/17 06:22:06;;;;;;;;;23.00;21.00;;;;;16.33;55.00;98956.78;5949244;29;97152;-59
2023/04/17 06:25:10;;;;;;;;;24.60;22.60;;;;;16.43;54.56;98953.34;5967590;29;96251;-59
2023/04/17 06:28:14;;;;;;;;;26.40;25.40;;;;;16.48;54.13;98962.38;5970878;29;96269;-60
2023/04/17 06:31:17;;;;;;;;;22.00;20.00;;;;;16.51;54.02;98965.66;5968681;29;96338;-59
2023/04/17 06:34:22;;;;;;;;;23.00;21.33;;;;;16.52;53.70;98957.22;5960333;29;96373;-59
2023/04/17 06:37:26;;;;;;;;;21.00;19.00;;;;;16.53;53.77;98969.75;5969934;29;96261;-60
2023/04/17 06:40:29;;;;;;;;;25.50;23.50;;;;;16.42;53.60;98971.56;5969817;29;96646;-59
2023/04/17 06:43:33;;;;;;;;;27.00;22.25;;;;;16.36;53.89;98971.78;5966559;29;96246;-59
2023/04/17 06:46:47;;;;;;;;;23.00;21.00;;;;;16.21;54.36;98977.88;5970783;29;96412;-60
2023/04/17 06:49:51;;;;;;;;;24.50;23.00;;;;;16.14;54.55;98971.81;5970849;29;96372;-60
2023/04/17 06:52:55;;;;;;;;;24.00;23.00;;;;;16.04;54.83;98977.13;5987052;29;96257;-60
2023/04/17 06:55:58;;;;;;;;;31.00;26.80;;;;;16.02;55.06;98982.84;5978682;29;96893;-60
2023/04/17 06:59:01;;;;;;;;;28.00;24.00;;;;;16.04;55.26;98980.69;5987550;29;96299;-59
2023/04/17 07:02:05;;;;;;;;;25.00;24.00;;;;;16.15;55.36;98980.78;5987889;29;96339;-59
2023/04/17 07:05:11;;;;;;;;;28.80;26.00;;;;;16.30;55.22;98981.78;5977132;29;96928;-60
2023/04/17 07:08:17;;;;;;;;;32.00;29.60;;;;;16.44;54.77;98984.91;5964143;29;96354;-59
2023/04/17 07:11:20;;;;;;;;;33.00;29.80;;;;;16.56;54.44;98974.72;5964943;29;96346;-59
2023/04/17 07:14:23;;;;;;;;;34.00;30.00;;;;;16.66;54.29;98982.16;5962785;29;96288;-59
2023/04/17 07:17:27;;;;;;;;;30.00;28.00;;;;;16.73;53.70;98989.03;5962437;29;96459;-59
2023/04/17 07:20:32;;;;;;;;;34.00;30.00;;;;;16.76;53.76;98985.78;5962857;29;96247;-60
2023/04/17 07:23:35;;;;;;;;;32.40;29.40;;;;;16.84;53.62;98981.78;5972395;29;96311;-60
2023/04/17 07:26:42;;;;;;;;;27.00;26.00;;;;;16.95;53.66;98982.69;5984393;29;96345;-60
2023/04/17 07:29:51;;;;;;;;;28.60;26.60;;;;;17.05;53.34;98989.03;5974905;29;96255;-59
2023/04/17 07:32:54;;;;;;;;;29.00;26.40;;;;;17.15;52.78;98988.28;5961825;29;96261;-60
2023/04/17 07:36:00;;;;;;;;;32.00;29.50;;;;;17.17;52.72;98992.38;5961072;29;96270;-59
2023/04/17 07:39:05;;;;;;;;;30.60;28.40;;;;;17.12;52.71;98980.63;5961708;29;96301;-59
2023/04/17 07:42:10;;;;;;;;;29.60;28.20;;;;;17.10;52.97;98977.34;5961310;29;96318;-62
2023/04/17 07:45:13;;;;;;;;;30.20;27.20;;;;;17.24;52.73;98989.44;5960873;29;96341;-62
2023/04/17 07:48:17;;;;;;;;;31.00;28.40;;;;;17.34;52.74;98992.22;5961317;29;96332;-61
2023/04/17 07:51:22;;;;;;;;;34.60;30.40;;;;;17.49;52.64;98986.06;5960422;29;96303;-62
2023/04/17 07:54:26;;;;;;;;;28.20;25.80;;;;;17.49;52.75;98984.16;5961135;29;96313;-60
2023/04/17 07:57:29;;;;;;;;;29.40;25.40;;;;;17.56;52.23;98998.34;5961182;29;96344;-60
2023/04/17 08:00:32;;;;;;;;;23.40;23.00;;;;;17.51;52.16;98992.03;5961258;29;96271;-60
2023/04/17 08:03:36;;;;;;;;;30.60;24.60;;;;;17.50;52.44;98991.22;5962485;29;96846;-59
2023/04/17 08:06:40;;;;;;;;;28.20;26.00;;;;;17.42;52.42;98975.38;5962511;29;96447;-59
2023/04/17 08:09:44;;;;;;;;;26.00;23.00;;;;;17.55;52.81;99001.31;5961557;29;96353;-60
2023/04/17 08:12:47;;;;;;;;;24.75;22.75;;;;;17.46;52.45;98997.47;5946413;29;96617;-59
2023/04/17 08:15:51;;;;;;;;;28.33;25.33;;;;;17.38;53.67;99001.50;5961269;29;96400;-60
2023/04/17 08:18:54;;;;;;;;;32.20;26.60;;;;;17.32;54.03;99005.28;5960804;29;96869;-60
2023/04/17 08:22:05;;;;;;;;;29.50;25.75;;;;;17.29;54.62;99005.81;5959071;29;96617;-60
2023/04/17 08:25:09;;;;;;;;;29.60;28.60;;;;;17.27;55.46;99002.53;5958944;29;96415;-60
2023/04/17 08:28:12;;;;;;;;;27.00;24.00;;;;;17.26;55.42;99007.16;5942034;29;96282;-61
2023/04/17 08:31:16;;;;;;;;;28.80;25.20;;;;;17.27;55.75;99005.25;5959038;29;96360;-60
2023/04/17 08:34:20;;;;;;;;;27.60;24.00;;;;;17.19;55.39;99009.28;5958159;29;96211;-61
2023/04/17 08:37:26;;;;;;;;;25.50;24.50;;;;;17.02;55.43;99005.88;5960274;29;96250;-60
2023/04/17 08:40:30;;;;;;;;;23.80;22.80;;;;;16.79;56.32;99009.78;5960581;29;96915;-60
2023/04/17 08:43:35;;;;;;;;;22.75;20.75;;;;;16.82;56.62;99006.53;5959430;29;96095;-60
2023/04/17 08:46:39;;;;;;;;;23.00;21.80;;;;;16.67;56.90;99019.19;5943730;29;97030;-60
2023/04/17 08:49:44;;;;;;;;;25.00;23.00;;;;;16.48;57.60;99013.25;5959658;29;96316;-60
2023/04/17 08:52:51;;;;;;;;;29.00;25.00;;;;;16.37;58.33;99020.47;5962879;29;96513;-60
2023/04/17 08:55:54;;;;;;;;;28.00;24.00;;;;;16.32;59.18;99014.97;5962727;29;96425;-60
2023/04/17 08:58:58;;;;;;;;;25.00;23.20;;;;;16.37;59.07;99014.25;5981440;29;96846;-60
2023/04/17 09:02:03;;;;;;;;;33.00;28.00;;;;;16.36;59.45;99018.88;5958195;29;96999;-60
2023/04/17 09:05:19;;;;;;;;;30.20;26.80;;;;;16.32;59.78;99022.34;5933738;29;96902;-61
2023/04/17 09:08:24;;;;;;;;;32.00;28.00;;;;;16.33;60.09;99030.25;5959527;29;96168;-61
2023/04/17 09:11:29;;;;;;;;;27.00;26.20;;;;;16.40;60.45;99021.88;5960676;29;96329;-60
2023/04/17 09:14:32;;;;;;;;;28.67;25.00;;;;;16.48;60.17;99019.53;5960409;29;96357;-60
2023/04/17 09:17:36;;;;;;;;;28.80;27.00;;;;;16.58;60.06;99018.84;5960094;29;96469;-61
2023/04/17 09:20:49;;;;;;;;;29.00;26.00;;;;;16.67;60.18;99021.91;5959594;29;96275;-60
2023/04/17 09:23:58;;;;;;;;;27.50;24.50;;;;;16.73;60.20;99020.88;5960429;29;96688;-61
2023/04/17 09:27:20;;;;;;;;;30.00;28.00;;;;;16.82;60.46;99011.97;5943994;29;96862;-61
2023/04/17 09:30:25;;;;;;;;;24.40;22.60;;;;;16.94;60.17;99019.16;5959489;29;96062;-61
2023/04/17 09:33:29;;;;;;;;;29.60;26.60;;;;;16.97;59.92;99022.19;5959826;29;96990;-61
2023/04/17 09:36:34;;;;;;;;;30.60;28.60;;;;;17.05;59.80;99015.44;5959556;29;96354;-61
2023/04/17 09:39:39;;;;;;;;;32.00;28.00;;;;;17.13;59.77;99020.41;5959266;29;96284;-61
2023/04/17 09:42:58;;;;;;;;;29.00;27.40;;;;;17.18;59.61;99025.91;5963220;29;96339;-60
2023/04/17 09:46:02;;;;;;;;;33.60;29.00;;;;;17.27;59.06;99016.16;5983631;29;96394;-60
2023/04/17 09:49:10;;;;;;;;;31.00;27.25;;;;;17.31;59.16;99019.97;5952253;29;98487;-60
2023/04/17 09:52:14;;;;;;;;;29.00;24.80;;;;;17.42;59.43;99023.59;5975255;29;96401;-60
2023/04/17 09:55:21;;;;;;;;;24.00;24.00;;;;;17.48;58.90;99019.84;5974353;29;96288;-60
2023/04/17 09:58:25;;;;;;;;;23.20;21.20;;;;;17.37;58.94;99023.56;5974464;29;97592;-60
2023/04/17 10:01:29;;;;;;;;;26.00;24.60;;;;;17.49;58.83;99021.47;5972192;29;96889;-61
2023/04/17 10:04:33;;;;;;;;;28.80;23.80;;;;;17.66;58.56;99022.97;5971499;29;96505;-61
2023/04/17 10:07:38;;;;;;;;;26.00;23.60;;;;;17.80;58.21;99020.59;5974143;29;96734;-61
2023/04/17 10:10:42;;;;;;;;;25.00;21.00;;;;;17.92;57.49;99021.19;5972930;29;96257;-61
2023/04/17 10:13:53;;;;;;;;;22.40;19.40;;;;;18.06;56.62;99022.34;5972794;29;96397;-61
2023/04/17 10:16:56;;;;;;;;;23.00;21.00;;;;;18.22;56.23;99023.22;5968977;29;96917;-61
2023/04/17 10:20:34;;;;;;;;;20.00;19.00;;;;;18.27;55.00;99012.34;5955129;29;96447;-61
2023/04/17 10:23:38;;;;;;;;;21.00;19.00;;;;;18.41;54.82;99015.38;5972439;29;96415;-60
2023/04/17 10:26:43;;;;;;;;;20.60;19.40;;;;;18.14;54.83;99008.19;5972228;29;96910;-61
2023/04/17 10:29:54;;;;;;;;;20.20;18.20;;;;;18.20;54.48;99006.28;5971589;29;96324;-61
2023/04/17 10:33:20;;;;;;;;;20.00;19.00;;;;;18.23;54.62;99004.94;5973221;29;96500;-61
2023/04/17 10:36:49;;;;;;;;;19.50;18.00;;;;;18.14;53.76;99013.63;5970415;29;96316;-60
2023/04/17 10:39:59;;;;;;;;;16.00;14.40;;;;;18.09;53.82;99005.44;5973032;29;97641;-60
2023/04/17 10:43:14;;;;;;;;;16.60;15.60;;;;;18.13;54.18;99000.28;5972935;29;96297;-60
2023/04/17 10:46:17;;;;;;;;;20.25;18.25;;;;;18.09;54.26;99010.88;5973832;29;96314;-60
2023/04/17 10:49:21;;;;;;;;;21.00;20.00;;;;;18.21;53.95;99007.94;5972649;29;96368;-61
2023/04/17 10:52:39;;;;;;;;;20.00;18.00;;;;;18.19;54.41;99005.47;5972425;29;96335;-61
2023/04/17 10:55:49;;;;;;;;;19.50;17.75;;;;;18.22;54.89;99004.13;5968336;29;96851;-61
2023/04/17 10:59:02;;;;;;;;;18.60;16.00;;;;;18.09;54.88;98994.53;5976890;29;97010;-61
2023/04/17 11:02:08;;;;;;;;;16.40;16.40;;;;;18.00;53.93;99003.50;5976336;29;96362;-61
2023/04/17 11:05:12;;;;;;;;;12.75;11.00;;;;;17.85;54.34;99009.69;5978936;29;96289;-61
2023/04/17 11:08:16;;;;;;;;;14.40;14.00;;;;;17.84;54.24;99008.06;5973274;29;96438;-61
2023/04/17 11:11:21;;;;;;;;;12.00;12.00;;;;;17.70;54.34;98998.72;5974400;29;96752;-62
2023/04/17 11:14:47;;;;;;;;;12.00;10.60;;;;;17.76;54.91;99008.56;5975691;29;96568;-62
2023/04/17 11:17:51;;;;;;;;;12.60;12.00;;;;;17.61;55.86;99014.75;5967445;29;96585;-61
2023/04/17 11:20:56;;;;;;;;;14.00;12.40;;;;;17.64;56.16;99011.50;5961007;29;97845;-62
2023/04/17 11:24:02;;;;;;;;;16.75;15.25;;;;;17.65;56.26;99012.31;5971195;29;96743;-61
2023/04/17 11:27:07;;;;;;;;;17.00;17.00;;;;;17.73;56.28;99014.56;5976037;29;96234;-62
2023/04/17 11:30:13;;;;;;;;;14.20;13.00;;;;;17.77;56.25;99012.94;5977683;29;96452;-61
2023/04/17 11:33:16;;;;;;;;;12.60;12.00;;;;;17.77;55.63;99018.41;5978878;29;96292;-61
2023/04/17 11:36:23;;;;;;;;;12.00;11.00;;;;;17.73;55.68;99011.84;5974349;29;96406;-60
2023/04/17 11:39:29;;;;;;;;;11.40;10.40;;;;;17.77;55.84;99014.84;5982173;29;96522;-61
2023/04/17 11:42:34;;;;;;;;;17.00;14.00;;;;;17.73;56.15;99012.66;5985621;29;96829;-61
2023/04/17 11:45:41;;;;;;;;;16.00;15.00;;;;;17.75;56.45;99013.19;5968692;29;96986;-61
2023/04/17 11:48:49;;;;;;;;;18.00;15.60;;;;;17.74;56.12;99016.19;5985043;29;96402;-61
2023/04/17 11:51:52;;;;;;;;;14.00;13.00;;;;;17.77;56.51;99009.41;5967604;29;97429;-61
2023/04/17 11:54:58;;;;;;;;;11.80;11.00;;;;;17.63;56.00;99009.06;5984747;29;96220;-61
2023/04/17 11:58:04;;;;;;;;;15.80;13.80;;;;;17.70;56.00;99005.00;5985488;29;96519;-61
2023/04/17 12:01:09;;;;;;;;;18.00;17.00;;;;;17.68;56.28;99009.91;5984542;29;96390;-62
2023/04/17 12:04:20;;;;;;;;;16.25;13.75;;;;;17.57;55.94;99004.63;5967239;29;96644;-61
2023/04/17 12:07:24;;;;;;;;;17.00;15.00;;;;;17.74;56.51;99013.44;5958723;29;96898;-61
2023/04/17 12:10:41;;;;;;;;;19.25;16.25;;;;;17.78;56.56;99008.31;5980404;29;96864;-61
2023/04/17 12:13:45;;;;;;;;;16.00;14.00;;;;;17.78;56.27;99011.03;5969033;29;96944;-61
2023/04/17 12:16:50;;;;;;;;;13.00;12.00;;;;;17.72;56.67;99016.47;5986574;29;96339;-62
2023/04/17 12:19:54;;;;;;;;;17.50;15.25;;;;;17.68;57.63;99009.09;5987082;29;96243;-61
2023/04/17 12:22:58;;;;;;;;;13.00;13.00;;;;;17.66;57.35;99000.34;5986681;29;96926;-62
2023/04/17 12:26:01;;;;;;;;;14.00;14.00;;;;;17.65;57.35;99004.13;5968314;29;96678;-61
2023/04/17 12:29:04;;;;;;;;;16.60;14.00;;;;;17.58;57.71;99009.81;5967585;29;96492;-61
2023/04/17 12:32:10;;;;;;;;;11.00;8.60;;;;;17.54;57.40;99016.88;5969005;29;96540;-61
2023/04/17 12:35:13;;;;;;;;;12.40;11.00;;;;;17.48;57.41;99007.03;5974817;29;96346;-61
2023/04/17 12:38:17;;;;;;;;;13.00;11.00;;;;;17.49;57.07;99007.84;5974824;29;96227;-62
2023/04/17 12:41:20;;;;;;;;;14.25;11.75;;;;;17.45;57.73;99012.16;5966675;29;96739;-61
2023/04/17 12:44:23;;;;;;;;;12.00;11.00;;;;;17.39;58.14;99010.50;5984680;29;97180;-62
2023/04/17 12:47:29;;;;;;;;;13.50;12.50;;;;;17.18;58.25;99010.38;5981924;29;96351;-62
2023/04/17 12:50:32;;;;;;;;;13.00;12.00;;;;;17.26;58.06;99009.03;5985691;29;96208;-61
2023/04/17 12:53:36;;;;;;;;;11.50;9.50;;;;;17.21;58.20;99012.56;5976037;29;96254;-61
2023/04/17 12:56:39;;;;;;;;;12.00;11.00;;;;;17.12;58.39;99005.97;5979159;29;96341;-62
2023/04/17 12:59:42;;;;;;;;;15.40;13.60;;;;;17.07;58.88;99002.38;5980860;29;97249;-62
2023/04/17 13:02:47;;;;;;;;;13.20;12.20;;;;;16.96;59.30;99004.19;5985879;29;96659;-60
2023/04/17 13:05:52;;;;;;;;;12.00;12.00;;;;;16.88;59.60;99012.84;5990843;29;96735;-59
2023/04/17 13:08:55;;;;;;;;;14.50;13.50;;;;;16.79;60.21;99007.06;6000504;29;96319;-59
2023/04/17 13:11:58;;;;;;;;;15.50;13.00;;;;;16.76;60.22;98999.38;5990895;29;96817;-59
2023/04/17 13:15:02;;;;;;;;;15.25;14.00;;;;;16.83;60.57;99001.91;5998298;29;96464;-59
2023/04/17 13:18:06;;;;;;;;;14.40;13.00;;;;;16.80;60.73;98997.00;5985681;29;99257;-59
2023/04/17 13:21:10;;;;;;;;;13.00;11.75;;;;;16.85;60.28;98999.75;6000963;29;96584;-59
2023/04/17 13:24:14;;;;;;;;;14.20;11.40;;;;;16.86;60.17;99004.94;5996483;29;96948;-59
2023/04/17 13:27:17;;;;;;;;;10.40;9.40;;;;;16.82;60.47;98997.53;5983256;29;96348;-60
2023/04/17 13:30:21;;;;;;;;;9.00;8.00;;;;;16.82;60.27;99002.97;5983013;28;96694;-59
2023/04/17 13:33:26;;;;;;;;;11.80;11.20;;;;;16.78;60.62;98991.81;5999567;28;96368;-59
2023/04/17 13:36:30;;;;;;;;;11.40;9.40;;;;;16.80;60.23;98991.56;5993006;28;96416;-59
2023/04/17 13:39:33;;;;;;;;;12.40;11.00;;;;;16.79;60.64;98996.16;5997453;29;97000;-60
2023/04/17 13:42:38;;;;;;;;;14.25;12.75;;;;;16.86;60.38;99001.38;5966320;29;96546;-58
2023/04/17 13:45:42;;;;;;;;;12.40;11.40;;;;;16.84;60.46;99001.66;5986958;29;96987;-59
2023/04/17 13:48:47;;;;;;;;;12.60;10.60;;;;;16.80;60.78;98992.38;5995769;28;96334;-60
2023/04/17 13:51:50;;;;;;;;;10.50;10.50;;;;;16.77;61.46;98994.78;5993253;28;96378;-59
2023/04/17 13:54:54;;;;;;;;;10.60;9.00;;;;;16.77;61.39;98997.50;6001894;28;96341;-59
2023/04/17 13:57:57;;;;;;;;;12.60;12.60;;;;;16.70;61.24;98999.63;5999968;29;96323;-58
2023/04/17 14:01:00;;;;;;;;;10.00;9.00;;;;;16.59;61.05;98987.00;6000083;29;96810;-59
2023/04/17 14:04:05;;;;;;;;;9.00;9.00;;;;;16.62;60.73;98990.00;5993249;29;96267;-59
2023/04/17 14:07:11;;;;;;;;;10.20;10.00;;;;;16.59;61.51;98995.97;5993508;29;96461;-60
2023/04/17 14:10:15;;;;;;;;;11.40;9.00;;;;;16.58;61.46;98999.78;5987119;29;96573;-60
2023/04/17 14:13:18;;;;;;;;;14.40;13.40;;;;;16.61;60.80;99001.19;6001963;29;96285;-58